Time;durP1;ratioP1;P1;durP2;ratioP2;P2;SDS_P1;SDS_P2;PMS_P1;PMS_P2;Temp;Humidity;BMP_temperature;BMP_pressure;BME280_temperature;BME280_humidity;BME280_pressure;Samples;Min_cycle;Max_cycle;Signal;HPM_P1;HPM_P2
2022/06/05 00:01:29;;;;;;;;;;;12.80;99.90;;;;;;5130508;28;19923;-81
2022/06/05 00:04:01;;;;;;;;;;;12.80;99.90;;;;;;5132499;27;20393;-80
2022/06/05 00:06:27;;;;;;;;;;;12.90;99.90;;;;;;5132658;27;20369;-81
2022/06/05 00:08:56;;;;;;;;;;;12.90;99.90;;;;;;5136716;27;19923;-81
2022/06/05 00:11:21;;;;;;;;;;;12.90;99.90;;;;;;5133440;27;19932;-81
2022/06/05 00:13:52;;;;;;;;;;;12.90;99.90;;;;;;5135831;27;20393;-81
2022/06/05 00:16:19;;;;;;;;;;;12.90;99.90;;;;;;5135400;27;19973;-81
2022/06/05 00:18:45;;;;;;;;;;;12.90;99.90;;;;;;5122863;27;19931;-81
2022/06/05 00:21:11;;;;;;;;;;;13.00;99.90;;;;;;5135893;27;20374;-81
2022/06/05 00:23:37;;;;;;;;;;;13.00;99.90;;;;;;5134638;27;20018;-81
2022/06/05 00:26:05;;;;;;;;;;;13.00;99.90;;;;;;5136375;27;19961;-81
2022/06/05 00:28:38;;;;;;;;;;;13.00;99.90;;;;;;5122376;27;19924;-81
2022/06/05 00:31:08;;;;;;;;;;;13.00;99.90;;;;;;5135808;27;19923;-80
2022/06/05 00:33:33;;;;;;;;;;;13.00;99.90;;;;;;5134785;27;20320;-81
2022/06/05 00:36:02;;;;;;;;;;;13.10;99.90;;;;;;5135519;27;19923;-80
2022/06/05 00:38:40;;;;;;;;;;;13.10;99.90;;;;;;5117082;27;19927;-81
2022/06/05 00:41:24;;;;;;;;;;;13.00;99.90;;;;;;5126657;27;19927;-81
2022/06/05 00:43:52;;;;;;;;;;;13.10;99.90;;;;;;5116030;27;20294;-80
2022/06/05 00:46:18;;;;;;;;;;;13.00;99.90;;;;;;5131535;27;19923;-81
2022/06/05 00:48:45;;;;;;;;;;;13.00;99.90;;;;;;5132309;27;20263;-81
2022/06/05 00:51:11;;;;;;;;;;;13.00;99.90;;;;;;5116069;27;19923;-81
2022/06/05 00:53:37;;;;;;;;;;;13.00;99.90;;;;;;5101484;28;19923;-81
2022/06/05 00:56:02;;;;;;;;;;;13.00;99.90;;;;;;5132117;27;19972;-81
2022/06/05 00:58:30;;;;;;;;;;;13.00;99.90;;;;;;5116235;27;20362;-81
2022/06/05 01:00:55;;;;;;;;;;;13.10;99.90;;;;;;5134333;27;19927;-81
2022/06/05 01:03:22;;;;;;;;;;;13.10;99.90;;;;;;5129503;27;19968;-81
2022/06/05 01:05:47;;;;;;;;;;;13.10;99.90;;;;;;5115515;27;19923;-81
2022/06/05 01:08:14;;;;;;;;;;;13.10;99.90;;;;;;5134991;27;19991;-81
2022/06/05 01:10:58;;;;;;;;;;;13.10;99.90;;;;;;5116144;27;19963;-81
2022/06/05 01:13:24;;;;;;;;;;;13.10;99.90;;;;;;5115802;27;19930;-81
2022/06/05 01:16:09;;;;;;;;;;;13.00;99.90;;;;;;5134099;27;19923;-81
2022/06/05 01:18:41;;;;;;;;;;;13.10;99.90;;;;;;5133682;27;19931;-81
2022/06/05 01:21:25;;;;;;;;;;;13.10;99.90;;;;;;5132669;27;19923;-81
2022/06/05 01:24:00;;;;;;;;;;;13.10;99.90;;;;;;5134862;27;19923;-81
2022/06/05 01:26:41;;;;;;;;;;;13.10;99.90;;;;;;5134308;27;19934;-81
2022/06/05 01:29:09;;;;;;;;;;;13.00;99.90;;;;;;5134815;27;19931;-81
2022/06/05 01:31:43;;;;;;;;;;;13.00;99.90;;;;;;5114547;27;19928;-81
2022/06/05 01:34:11;;;;;;;;;;;13.00;99.90;;;;;;5135747;27;19923;-81
2022/06/05 01:36:42;;;;;;;;;;;13.00;99.90;;;;;;5132650;27;19924;-81
2022/06/05 01:39:13;;;;;;;;;;;13.00;99.90;;;;;;5134512;27;19929;-81
2022/06/05 01:41:42;;;;;;;;;;;13.00;99.90;;;;;;5135096;27;19977;-81
2022/06/05 01:44:09;;;;;;;;;;;13.00;99.90;;;;;;5122504;27;19924;-81
2022/06/05 01:46:36;;;;;;;;;;;13.00;99.90;;;;;;5112969;28;20019;-81
2022/06/05 01:49:02;;;;;;;;;;;13.00;99.90;;;;;;5089359;28;19969;-81
2022/06/05 01:51:34;;;;;;;;;;;13.00;99.90;;;;;;5107373;28;19928;-81
2022/06/05 01:54:03;;;;;;;;;;;13.00;99.90;;;;;;5114386;28;20332;-81
2022/06/05 01:56:43;;;;;;;;;;;13.00;99.90;;;;;;5112350;28;19924;-81
2022/06/05 01:59:12;;;;;;;;;;;13.00;99.90;;;;;;5113241;28;19923;-81
2022/06/05 02:01:41;;;;;;;;;;;12.90;99.90;;;;;;5113093;28;20295;-81
2022/06/05 02:04:12;;;;;;;;;;;12.90;99.90;;;;;;5108034;28;19924;-81
2022/06/05 02:06:41;;;;;;;;;;;12.90;99.90;;;;;;5113718;28;20012;-81
2022/06/05 02:09:20;;;;;;;;;;;13.00;99.90;;;;;;5114417;28;19946;-81
2022/06/05 02:11:46;;;;;;;;;;;12.90;99.90;;;;;;5113064;28;19927;-81
2022/06/05 02:14:12;;;;;;;;;;;12.90;99.90;;;;;;5095545;28;19931;-81
2022/06/05 02:16:38;;;;;;;;;;;12.90;99.90;;;;;;5096235;28;20260;-81
2022/06/05 02:19:05;;;;;;;;;;;12.90;99.90;;;;;;5095919;28;19971;-81
2022/06/05 02:21:32;;;;;;;;;;;13.00;99.90;;;;;;5092450;28;19924;-81
2022/06/05 02:23:57;;;;;;;;;;;12.90;99.90;;;;;;5098513;28;19946;-81
2022/06/05 02:26:23;;;;;;;;;;;13.00;99.90;;;;;;5112456;28;20399;-81
2022/06/05 02:28:48;;;;;;;;;;;12.90;99.90;;;;;;5110091;28;19924;-81
2022/06/05 02:31:26;;;;;;;;;;;13.00;99.90;;;;;;5092974;28;20007;-81
2022/06/05 02:34:12;;;;;;;;;;;13.00;99.90;;;;;;5094783;28;19928;-81
2022/06/05 02:36:55;;;;;;;;;;;13.00;99.90;;;;;;5079488;28;19924;-81
2022/06/05 02:39:21;;;;;;;;;;;13.00;99.90;;;;;;5094966;28;19947;-81
2022/06/05 02:41:48;;;;;;;;;;;13.00;99.90;;;;;;5112246;28;19923;-81
2022/06/05 02:44:31;;;;;;;;;;;13.00;99.90;;;;;;5123407;27;19923;-81
2022/06/05 02:47:09;;;;;;;;;;;13.00;99.90;;;;;;5132720;27;19930;-81
2022/06/05 02:49:42;;;;;;;;;;;13.00;99.90;;;;;;5107950;27;19930;-81
2022/06/05 02:52:08;;;;;;;;;;;13.00;99.90;;;;;;5120555;27;20293;-81
2022/06/05 02:54:38;;;;;;;;;;;13.00;99.90;;;;;;5149992;27;20059;-81
2022/06/05 02:57:04;;;;;;;;;;;13.00;99.90;;;;;;5117538;27;20278;-81
2022/06/05 02:59:30;;;;;;;;;;;13.00;99.90;;;;;;5126115;27;20062;-81
2022/06/05 03:04:39;;;;;;;;;;;13.10;99.90;;;;;;5132964;27;19930;-81
2022/06/05 03:07:05;;;;;;;;;;;13.10;99.90;;;;;;5140180;27;19928;-81
2022/06/05 03:09:31;;;;;;;;;;;13.10;99.90;;;;;;5129350;27;19978;-81
2022/06/05 03:11:56;;;;;;;;;;;13.10;99.90;;;;;;5115674;27;19924;-81
2022/06/05 03:14:22;;;;;;;;;;;13.10;99.90;;;;;;5123740;27;19993;-81
2022/06/05 03:16:47;;;;;;;;;;;13.10;99.90;;;;;;5130364;27;19923;-81
2022/06/05 03:19:13;;;;;;;;;;;13.10;99.90;;;;;;5127053;27;20003;-81
2022/06/05 03:21:39;;;;;;;;;;;13.10;99.90;;;;;;5102552;27;20371;-81
2022/06/05 03:24:05;;;;;;;;;;;13.10;99.90;;;;;;5132605;27;19946;-81
2022/06/05 03:26:32;;;;;;;;;;;13.10;99.90;;;;;;5114480;27;19923;-81
2022/06/05 03:28:57;;;;;;;;;;;13.20;99.90;;;;;;5130367;27;19996;-81
2022/06/05 03:31:23;;;;;;;;;;;13.10;99.90;;;;;;5128302;27;19962;-81
2022/06/05 03:33:49;;;;;;;;;;;13.10;99.90;;;;;;5128027;27;19928;-81
2022/06/05 03:36:16;;;;;;;;;;;13.10;99.90;;;;;;5131240;27;19923;-81
2022/06/05 03:38:42;;;;;;;;;;;13.10;99.90;;;;;;5137528;27;19923;-81
2022/06/05 03:41:10;;;;;;;;;;;13.20;99.90;;;;;;5108184;28;19963;-81
2022/06/05 03:43:36;;;;;;;;;;;13.20;99.90;;;;;;5114763;28;19927;-81
2022/06/05 03:46:07;;;;;;;;;;;13.30;99.90;;;;;;5128977;28;20282;-81
2022/06/05 03:48:32;;;;;;;;;;;13.30;99.90;;;;;;5129033;28;19952;-81
2022/06/05 03:50:58;;;;;;;;;;;13.30;99.90;;;;;;5123459;28;19940;-81
2022/06/05 03:53:24;;;;;;;;;;;13.30;99.90;;;;;;5095039;28;20378;-81
2022/06/05 03:55:50;;;;;;;;;;;13.30;99.90;;;;;;5126737;28;19923;-81
2022/06/05 03:58:15;;;;;;;;;;;13.30;99.90;;;;;;5132458;28;19927;-82
2022/06/05 04:00:41;;;;;;;;;;;13.30;99.90;;;;;;5120175;28;20394;-81
2022/06/05 04:03:07;;;;;;;;;;;13.30;99.90;;;;;;5131338;28;19924;-81
2022/06/05 04:05:33;;;;;;;;;;;13.30;99.90;;;;;;5131565;28;19923;-81
2022/06/05 04:07:58;;;;;;;;;;;13.30;99.90;;;;;;5128119;28;19930;-81
2022/06/05 04:10:24;;;;;;;;;;;13.30;99.90;;;;;;5125225;28;19930;-81
2022/06/05 04:12:50;;;;;;;;;;;13.30;99.90;;;;;;5116007;28;20016;-81
2022/06/05 04:15:15;;;;;;;;;;;13.30;99.90;;;;;;5125840;28;19938;-81
2022/06/05 04:17:41;;;;;;;;;;;13.30;99.90;;;;;;5130813;28;19937;-81
2022/06/05 04:20:07;;;;;;;;;;;13.30;99.90;;;;;;5128104;28;19930;-81
2022/06/05 04:22:35;;;;;;;;;;;13.30;99.90;;;;;;5131564;28;20268;-81
2022/06/05 04:25:01;;;;;;;;;;;13.30;99.90;;;;;;5111805;28;20406;-81
2022/06/05 04:27:26;;;;;;;;;;;13.30;99.90;;;;;;5101895;28;19931;-81
2022/06/05 04:29:52;;;;;;;;;;;13.40;99.90;;;;;;5121964;28;20026;-81
2022/06/05 04:32:17;;;;;;;;;;;13.40;99.90;;;;;;5117460;28;19977;-81
2022/06/05 04:34:43;;;;;;;;;;;13.40;99.90;;;;;;5119755;28;19930;-81
2022/06/05 04:37:08;;;;;;;;;;;13.50;99.90;;;;;;5126603;28;19981;-80
2022/06/05 04:39:35;;;;;;;;;;;13.50;99.90;;;;;;5131805;28;19924;-81
2022/06/05 04:42:00;;;;;;;;;;;13.60;99.90;;;;;;5094984;28;19966;-82
2022/06/05 04:44:26;;;;;;;;;;;13.60;99.90;;;;;;5099497;28;20351;-81
2022/06/05 04:46:52;;;;;;;;;;;13.60;99.90;;;;;;5105155;28;19927;-81
2022/06/05 04:49:18;;;;;;;;;;;13.70;99.90;;;;;;5083468;28;20390;-81
2022/06/05 04:51:44;;;;;;;;;;;13.80;99.90;;;;;;5089564;28;19932;-83
2022/06/05 04:54:16;;;;;;;;;;;13.80;99.90;;;;;;5076286;28;19931;-82
2022/06/05 04:56:41;;;;;;;;;;;13.80;99.90;;;;;;5109021;28;20017;-82
2022/06/05 04:59:07;;;;;;;;;;;13.90;99.90;;;;;;5109391;28;19993;-82
2022/06/05 05:01:34;;;;;;;;;;;13.90;99.90;;;;;;5072988;28;19924;-81
2022/06/05 05:04:01;;;;;;;;;;;13.90;99.90;;;;;;5089229;28;19947;-81
2022/06/05 05:06:26;;;;;;;;;;;13.90;99.90;;;;;;5088542;28;20352;-81
2022/06/05 05:08:54;;;;;;;;;;;14.00;99.90;;;;;;5107466;28;20014;-81
2022/06/05 05:11:20;;;;;;;;;;;14.00;99.90;;;;;;5089211;28;19987;-81
2022/06/05 05:13:45;;;;;;;;;;;14.00;99.90;;;;;;5109038;28;20426;-81
2022/06/05 05:16:11;;;;;;;;;;;14.10;99.90;;;;;;5113673;28;19923;-81
2022/06/05 05:18:36;;;;;;;;;;;14.10;99.90;;;;;;5102210;28;19963;-81
2022/06/05 05:21:03;;;;;;;;;;;14.10;99.90;;;;;;5095654;28;19963;-81
2022/06/05 05:23:29;;;;;;;;;;;14.20;99.90;;;;;;5112271;28;20007;-81
2022/06/05 05:25:54;;;;;;;;;;;14.20;99.90;;;;;;5094436;28;20431;-81
2022/06/05 05:28:20;;;;;;;;;;;14.20;99.90;;;;;;5102270;28;19934;-84
2022/06/05 05:30:46;;;;;;;;;;;14.20;99.90;;;;;;5093227;28;19931;-83
2022/06/05 05:33:12;;;;;;;;;;;14.30;99.90;;;;;;5091390;28;19924;-84
2022/06/05 05:35:37;;;;;;;;;;;14.30;99.90;;;;;;5080591;28;19927;-84
2022/06/05 05:38:03;;;;;;;;;;;14.40;99.90;;;;;;5093752;28;19931;-83
2022/06/05 05:43:13;;;;;;;;;;;14.50;99.90;;;;;;5120434;27;19945;-82
2022/06/05 05:45:38;;;;;;;;;;;14.70;99.90;;;;;;5136977;27;20430;-84
2022/06/05 05:48:04;;;;;;;;;;;14.70;99.90;;;;;;5138257;27;19930;-88
2022/06/05 05:50:30;;;;;;;;;;;14.80;99.90;;;;;;5139720;27;19971;-86
2022/06/05 05:52:55;;;;;;;;;;;14.90;99.90;;;;;;5137568;27;19926;-79
2022/06/05 05:55:21;;;;;;;;;;;15.00;99.90;;;;;;5129849;27;20455;-86
2022/06/05 05:57:46;;;;;;;;;;;15.10;99.90;;;;;;5120853;27;20278;-83
2022/06/05 06:00:13;;;;;;;;;;;15.20;99.90;;;;;;5137888;27;20428;-89
2022/06/05 06:02:39;;;;;;;;;;;15.20;99.90;;;;;;5133892;27;19922;-80
2022/06/05 06:05:06;;;;;;;;;;;15.20;99.90;;;;;;5119993;27;19923;-79
2022/06/05 06:07:31;;;;;;;;;;;15.30;99.90;;;;;;5135155;27;19923;-78
2022/06/05 06:09:57;;;;;;;;;;;15.40;99.90;;;;;;5124911;27;19930;-78
2022/06/05 06:12:23;;;;;;;;;;;15.40;99.90;;;;;;5127480;27;19980;-79
2022/06/05 06:14:49;;;;;;;;;;;15.50;99.90;;;;;;5111023;27;19923;-81
2022/06/05 06:17:14;;;;;;;;;;;15.50;99.90;;;;;;5133708;27;19923;-81
2022/06/05 06:19:40;;;;;;;;;;;15.50;99.90;;;;;;5137101;27;19938;-82
2022/06/05 06:22:06;;;;;;;;;;;15.60;99.90;;;;;;5115537;27;19931;-83
2022/06/05 06:24:31;;;;;;;;;;;15.70;99.90;;;;;;5122518;27;19952;-82
2022/06/05 06:26:57;;;;;;;;;;;15.70;99.90;;;;;;5129159;27;19927;-86
2022/06/05 06:29:22;;;;;;;;;;;15.80;99.90;;;;;;5120431;27;19923;-83
2022/06/05 06:31:48;;;;;;;;;;;15.90;99.90;;;;;;5136782;27;20367;-81
2022/06/05 06:34:14;;;;;;;;;;;15.90;99.90;;;;;;5135857;27;19923;-82
2022/06/05 06:36:39;;;;;;;;;;;16.00;99.90;;;;;;5151085;27;20006;-82
2022/06/05 06:39:05;;;;;;;;;;;16.00;99.90;;;;;;5154772;27;19927;-82
2022/06/05 06:41:31;;;;;;;;;;;16.00;99.90;;;;;;5136850;27;19946;-84
2022/06/05 06:43:56;;;;;;;;;;;16.10;99.90;;;;;;5123391;27;19963;-83
2022/06/05 06:46:22;;;;;;;;;;;16.20;99.90;;;;;;5150805;27;19923;-82
2022/06/05 06:48:48;;;;;;;;;;;16.20;99.90;;;;;;5154856;27;19927;-80
2022/06/05 06:51:14;;;;;;;;;;;16.20;99.90;;;;;;5125320;27;19930;-82
2022/06/05 06:53:40;;;;;;;;;;;16.30;99.90;;;;;;5111599;27;19978;-80
2022/06/05 06:56:12;;;;;;;;;;;16.30;99.90;;;;;;5089005;27;20019;-81
2022/06/05 06:58:38;;;;;;;;;;;16.30;99.90;;;;;;5136638;27;19964;-86
2022/06/05 07:01:04;;;;;;;;;;;16.40;99.90;;;;;;5118822;27;19923;-81
2022/06/05 07:03:30;;;;;;;;;;;16.40;99.90;;;;;;5126365;27;19931;-81
2022/06/05 07:05:56;;;;;;;;;;;16.40;99.90;;;;;;5132073;27;19927;-79
2022/06/05 07:08:22;;;;;;;;;;;16.50;99.90;;;;;;5122752;27;19930;-81
2022/06/05 07:10:47;;;;;;;;;;;16.50;99.90;;;;;;5126421;27;19923;-82
2022/06/05 07:13:13;;;;;;;;;;;16.50;99.90;;;;;;5124841;27;19974;-82
2022/06/05 07:15:39;;;;;;;;;;;16.50;99.90;;;;;;5119107;27;19931;-82
2022/06/05 07:18:06;;;;;;;;;;;16.60;99.90;;;;;;5135627;27;19923;-82
2022/06/05 07:20:32;;;;;;;;;;;16.60;99.90;;;;;;5135591;27;19973;-81
2022/06/05 07:22:58;;;;;;;;;;;16.70;99.90;;;;;;5114220;27;19931;-81
2022/06/05 07:25:24;;;;;;;;;;;16.80;99.90;;;;;;5154847;27;19965;-81
2022/06/05 07:27:49;;;;;;;;;;;16.90;99.90;;;;;;5119809;27;19923;-82
2022/06/05 07:30:15;;;;;;;;;;;17.00;99.90;;;;;;5153170;27;19923;-82
2022/06/05 07:32:40;;;;;;;;;;;17.10;99.90;;;;;;5105789;27;20274;-83
2022/06/05 07:35:06;;;;;;;;;;;17.20;99.90;;;;;;5143702;27;19931;-82
2022/06/05 07:37:32;;;;;;;;;;;17.20;99.90;;;;;;5134751;27;19949;-83
2022/06/05 07:39:58;;;;;;;;;;;17.30;99.90;;;;;;5131064;27;19923;-81
2022/06/05 07:42:23;;;;;;;;;;;17.40;99.90;;;;;;5116591;28;19946;-81
2022/06/05 07:44:49;;;;;;;;;;;17.50;99.90;;;;;;5130002;27;20026;-82
2022/06/05 07:47:15;;;;;;;;;;;17.50;99.90;;;;;;5136174;27;20386;-82
2022/06/05 07:49:40;;;;;;;;;;;17.60;99.90;;;;;;5136296;27;19983;-82
2022/06/05 07:54:51;;;;;;;;;;;17.70;99.90;;;;;;5143775;27;20393;-82
2022/06/05 07:57:18;;;;;;;;;;;17.80;99.90;;;;;;5134924;27;19927;-83
2022/06/05 07:59:46;;;;;;;;;;;17.80;99.90;;;;;;5098905;28;19930;-82
2022/06/05 08:02:13;;;;;;;;;;;17.80;99.90;;;;;;5145808;27;19943;-82
2022/06/05 08:04:40;;;;;;;;;;;17.80;99.90;;;;;;5125059;27;20346;-82
2022/06/05 08:07:07;;;;;;;;;;;17.90;99.90;;;;;;5134154;27;20323;-82
2022/06/05 08:09:33;;;;;;;;;;;18.00;99.90;;;;;;5129773;27;19927;-82
2022/06/05 08:12:00;;;;;;;;;;;18.10;99.90;;;;;;5149255;27;20001;-81
2022/06/05 08:14:26;;;;;;;;;;;18.20;99.90;;;;;;5134810;27;20464;-80
2022/06/05 08:16:52;;;;;;;;;;;18.40;99.90;;;;;;5120720;27;20348;-81
2022/06/05 08:19:19;;;;;;;;;;;18.60;99.90;;;;;;5135484;27;19931;-85
2022/06/05 08:21:46;;;;;;;;;;;18.60;99.90;;;;;;5134843;27;20002;-82
2022/06/05 08:24:11;;;;;;;;;;;18.70;99.90;;;;;;5135173;27;19924;-83
2022/06/05 08:26:37;;;;;;;;;;;18.70;99.90;;;;;;5110851;27;19948;-83
2022/06/05 08:29:03;;;;;;;;;;;18.90;99.90;;;;;;5129302;27;20286;-86
2022/06/05 08:31:29;;;;;;;;;;;18.90;99.90;;;;;;5102833;27;19958;-83
2022/06/05 08:33:57;;;;;;;;;;;19.00;99.90;;;;;;5139370;27;19923;-93
2022/06/05 08:36:22;;;;;;;;;;;19.10;99.90;;;;;;5122147;27;19939;-87
2022/06/05 08:41:32;;;;;;;;;;;19.30;99.90;;;;;;5140261;27;19923;-89
2022/06/05 08:44:33;;;;;;;;;;;19.40;99.90;;;;;;5139558;27;20002;-86
2022/06/05 08:47:05;;;;;;;;;;;19.50;99.90;;;;;;5031373;28;19943;-83
2022/06/05 08:49:37;;;;;;;;;;;19.70;99.90;;;;;;5092681;27;20380;-79
2022/06/05 08:52:03;;;;;;;;;;;19.80;99.90;;;;;;5139061;27;19962;-79
2022/06/05 08:54:49;;;;;;;;;;;19.90;99.90;;;;;;5139214;27;20246;-82
2022/06/05 08:57:18;;;;;;;;;;;20.00;99.90;;;;;;5128178;27;20383;-84
2022/06/05 08:59:51;;;;;;;;;;;20.00;99.90;;;;;;5127935;27;19924;-87
2022/06/05 09:02:22;;;;;;;;;;;20.00;99.90;;;;;;5132159;27;19981;-84
2022/06/05 09:04:51;;;;;;;;;;;20.10;99.90;;;;;;5133253;27;20230;-85
2022/06/05 09:07:19;;;;;;;;;;;20.10;99.90;;;;;;5114008;27;19924;-83
2022/06/05 09:09:50;;;;;;;;;;;20.00;99.90;;;;;;5142045;27;19981;-83
2022/06/05 09:12:25;;;;;;;;;;;20.10;99.90;;;;;;5130646;27;19974;-79
2022/06/05 09:15:00;;;;;;;;;;;20.10;99.90;;;;;;5157164;27;19983;-81
2022/06/05 09:17:27;;;;;;;;;;;20.20;99.90;;;;;;5133208;27;20877;-80
2022/06/05 09:19:54;;;;;;;;;;;20.30;99.90;;;;;;5114968;27;19979;-85
2022/06/05 09:22:28;;;;;;;;;;;20.40;99.90;;;;;;5155759;27;19923;-82
2022/06/05 09:25:12;;;;;;;;;;;20.50;99.90;;;;;;5156792;27;19946;-82
2022/06/05 09:27:57;;;;;;;;;;;20.50;99.90;;;;;;5121025;27;19923;-81
2022/06/05 09:30:36;;;;;;;;;;;20.50;99.90;;;;;;5127337;27;19924;-82
2022/06/05 09:33:04;;;;;;;;;;;20.60;99.90;;;;;;5136670;27;19923;-81
2022/06/05 09:35:29;;;;;;;;;;;20.70;99.90;;;;;;5107402;27;19927;-79
2022/06/05 09:37:57;;;;;;;;;;;20.80;99.90;;;;;;5119815;27;19931;-78
2022/06/05 09:40:28;;;;;;;;;;;20.90;99.90;;;;;;5131828;27;19989;-80
2022/06/05 09:43:11;;;;;;;;;;;21.10;99.90;;;;;;5134577;27;19946;-82
2022/06/05 09:45:43;;;;;;;;;;;21.20;99.90;;;;;;5151873;27;19929;-84
2022/06/05 09:48:21;;;;;;;;;;;21.20;99.90;;;;;;5106742;27;19923;-84
2022/06/05 09:50:47;;;;;;;;;;;21.30;99.90;;;;;;5132625;27;20394;-84
2022/06/05 09:53:18;;;;;;;;;;;21.30;99.90;;;;;;5116532;27;19979;-84
2022/06/05 09:55:55;;;;;;;;;;;21.50;99.90;;;;;;5150492;27;20331;-82
2022/06/05 09:58:36;;;;;;;;;;;21.60;99.90;;;;;;5137710;27;19934;-82
2022/06/05 10:01:20;;;;;;;;;;;21.60;99.90;;;;;;5120629;27;19979;-82
2022/06/05 10:03:46;;;;;;;;;;;21.70;99.90;;;;;;5143855;27;19935;-81
2022/06/05 10:06:24;;;;;;;;;;;21.70;99.90;;;;;;5137281;27;19923;-82
2022/06/05 10:08:59;;;;;;;;;;;21.70;99.90;;;;;;5120722;27;19942;-82
2022/06/05 10:11:38;;;;;;;;;;;21.70;99.90;;;;;;5131403;27;19967;-84
2022/06/05 10:14:22;;;;;;;;;;;21.80;99.90;;;;;;5149091;27;19986;-83
2022/06/05 10:16:48;;;;;;;;;;;22.00;99.90;;;;;;5129939;27;19939;-81
2022/06/05 10:19:45;;;;;;;;;;;22.00;99.90;;;;;;5118427;27;19927;-81
2022/06/05 10:22:20;;;;;;;;;;;21.90;99.90;;;;;;5099185;27;19945;-81
2022/06/05 10:25:04;;;;;;;;;;;21.90;99.90;;;;;;5146629;27;19927;-83
2022/06/05 10:27:32;;;;;;;;;;;21.80;99.90;;;;;;5113006;27;19923;-85
2022/06/05 10:30:00;;;;;;;;;;;21.80;99.90;;;;;;5129735;27;19923;-82
2022/06/05 10:32:44;;;;;;;;;;;21.70;99.90;;;;;;5127094;27;19945;-82
2022/06/05 10:35:10;;;;;;;;;;;21.70;99.90;;;;;;5148175;27;20315;-83
2022/06/05 10:37:39;;;;;;;;;;;21.70;99.90;;;;;;5145680;27;19950;-81
2022/06/05 11:14:03;;;;;;;;;;;21.30;99.90;;;;;;5033608;28;20319;-83
2022/06/05 11:16:47;;;;;;;;;;;21.40;99.90;;;;;;4993509;28;19994;-82
2022/06/05 11:19:16;;;;;;;;;;;21.40;99.90;;;;;;5072533;27;19959;-85
2022/06/05 11:21:43;;;;;;;;;;;21.40;99.90;;;;;;5014933;28;19926;-89
2022/06/05 11:24:35;;;;;;;;;;;21.60;99.90;;;;;;5024874;28;19933;-86
2022/06/05 11:27:04;;;;;;;;;;;21.70;99.90;;;;;;4975373;28;19941;-84
2022/06/05 11:29:48;;;;;;;;;;;21.70;99.90;;;;;;4998184;28;19930;-89
2022/06/05 11:32:13;;;;;;;;;;;21.80;99.90;;;;;;5032234;28;19922;-81
2022/06/05 11:34:45;;;;;;;;;;;21.80;99.90;;;;;;5051575;28;19942;-81
2022/06/05 11:37:43;;;;;;;;;;;21.80;99.90;;;;;;5057650;28;19922;-81
2022/06/05 11:40:09;;;;;;;;;;;21.80;99.90;;;;;;5032882;27;19929;-78
2022/06/05 11:42:46;;;;;;;;;;;21.90;99.90;;;;;;5004629;28;20008;-78
2022/06/05 11:45:30;;;;;;;;;;;21.80;99.90;;;;;;5011689;28;19926;-78
2022/06/05 11:48:08;;;;;;;;;;;21.80;99.90;;;;;;4998272;28;19925;-78
2022/06/05 11:50:39;;;;;;;;;;;21.70;99.90;;;;;;4989149;28;20392;-78
2022/06/05 11:53:04;;;;;;;;;;;21.60;99.90;;;;;;4987308;28;20338;-80
2022/06/05 11:55:33;;;;;;;;;;;21.60;99.90;;;;;;5002969;28;19926;-80
2022/06/05 11:58:22;;;;;;;;;;;21.50;99.90;;;;;;5008869;28;19926;-78
2022/06/05 12:00:54;;;;;;;;;;;21.50;99.90;;;;;;4999869;28;20016;-81
2022/06/05 12:03:25;;;;;;;;;;;21.40;99.90;;;;;;5001797;28;20254;-80
2022/06/05 12:05:54;;;;;;;;;;;21.40;99.90;;;;;;5015320;28;20273;-79
2022/06/05 12:08:29;;;;;;;;;;;21.40;99.90;;;;;;5002847;28;19948;-79
2022/06/05 12:10:55;;;;;;;;;;;21.30;99.90;;;;;;5026775;28;19932;-79
2022/06/05 12:13:24;;;;;;;;;;;21.30;99.90;;;;;;5006696;28;19926;-81
2022/06/05 12:16:06;;;;;;;;;;;21.20;99.90;;;;;;4997714;28;19968;-80
2022/06/05 12:18:35;;;;;;;;;;;21.20;99.90;;;;;;5008522;28;19995;-80
2022/06/05 12:21:06;;;;;;;;;;;21.20;99.90;;;;;;5011773;28;20032;-79
2022/06/05 12:23:37;;;;;;;;;;;21.20;99.90;;;;;;4979370;28;20398;-88
2022/06/05 12:26:24;;;;;;;;;;;21.20;99.90;;;;;;4992793;28;19929;-81
2022/06/05 12:28:52;;;;;;;;;;;21.10;99.90;;;;;;4998152;28;19971;-78
2022/06/05 12:31:23;;;;;;;;;;;21.10;99.90;;;;;;5019401;28;20420;-79
2022/06/05 12:34:08;;;;;;;;;;;21.10;99.90;;;;;;4996868;28;19928;-80
2022/06/05 12:36:54;;;;;;;;;;;21.00;99.90;;;;;;4972927;28;19987;-80
2022/06/05 12:39:29;;;;;;;;;;;21.00;99.90;;;;;;4970153;28;19980;-80
2022/06/05 12:42:03;;;;;;;;;;;21.00;99.90;;;;;;4986992;28;19930;-79
2022/06/05 12:44:41;;;;;;;;;;;21.10;99.90;;;;;;5003516;28;19941;-79
2022/06/05 12:47:16;;;;;;;;;;;21.00;99.90;;;;;;4972543;28;19965;-81
2022/06/05 12:49:51;;;;;;;;;;;21.00;99.90;;;;;;5009321;28;19930;-82
2022/06/05 12:52:20;;;;;;;;;;;21.10;99.90;;;;;;4988908;28;20341;-80
2022/06/05 12:54:59;;;;;;;;;;;21.10;99.90;;;;;;4987637;28;19930;-81
2022/06/05 12:57:44;;;;;;;;;;;21.00;99.90;;;;;;4988235;28;20048;-81
2022/06/05 13:00:18;;;;;;;;;;;20.90;99.90;;;;;;4932742;28;20289;-80
2022/06/05 13:02:47;;;;;;;;;;;20.90;99.90;;;;;;4971154;28;19978;-80
2022/06/05 13:05:23;;;;;;;;;;;20.80;99.90;;;;;;4985078;28;19930;-81
2022/06/05 13:07:53;;;;;;;;;;;20.90;99.90;;;;;;5017835;28;19948;-81
2022/06/05 13:10:27;;;;;;;;;;;20.80;99.90;;;;;;5002643;28;19932;-81
2022/06/05 13:13:02;;;;;;;;;;;20.80;99.90;;;;;;4984538;28;19934;-80
2022/06/05 13:15:32;;;;;;;;;;;20.80;99.90;;;;;;4983188;28;19937;-80
2022/06/05 13:18:04;;;;;;;;;;;20.70;99.90;;;;;;4983127;28;19983;-81
2022/06/05 13:20:30;;;;;;;;;;;20.70;99.90;;;;;;5001904;28;19992;-80
2022/06/05 13:23:05;;;;;;;;;;;20.70;99.90;;;;;;4978106;28;19972;-81
2022/06/05 13:25:52;;;;;;;;;;;20.70;99.90;;;;;;4985157;28;19926;-80
2022/06/05 13:28:22;;;;;;;;;;;20.70;99.90;;;;;;4985126;28;19979;-79
2022/06/05 13:30:53;;;;;;;;;;;20.80;99.90;;;;;;4985862;28;19925;-84
2022/06/05 13:33:26;;;;;;;;;;;20.90;99.90;;;;;;4990126;28;19929;-80
2022/06/05 13:35:52;;;;;;;;;;;21.00;99.90;;;;;;4984825;28;19960;-80
2022/06/05 13:38:24;;;;;;;;;;;21.00;99.90;;;;;;4988753;28;19936;-80
2022/06/05 13:40:56;;;;;;;;;;;21.10;99.90;;;;;;4992208;28;19941;-81
2022/06/05 13:43:30;;;;;;;;;;;21.10;99.90;;;;;;4973472;28;19952;-80
2022/06/05 13:46:01;;;;;;;;;;;21.10;99.90;;;;;;4997184;28;19933;-81
2022/06/05 13:48:30;;;;;;;;;;;21.20;99.90;;;;;;5003695;28;19926;-80
2022/06/05 13:51:01;;;;;;;;;;;21.20;99.90;;;;;;4985484;28;19930;-80
2022/06/05 13:53:34;;;;;;;;;;;21.10;99.90;;;;;;4998574;28;19930;-80
2022/06/05 13:56:06;;;;;;;;;;;21.00;99.90;;;;;;5009979;28;19969;-80
2022/06/05 13:58:37;;;;;;;;;;;21.00;99.90;;;;;;5029584;27;20281;-81
2022/06/05 14:01:22;;;;;;;;;;;21.10;99.90;;;;;;5026068;28;20540;-81
2022/06/05 14:03:49;;;;;;;;;;;21.10;99.90;;;;;;5018782;28;19929;-81
2022/06/05 14:06:35;;;;;;;;;;;21.00;99.90;;;;;;4986908;28;20360;-80
2022/06/05 14:09:05;;;;;;;;;;;21.00;99.90;;;;;;4988761;28;19936;-79
2022/06/05 14:11:33;;;;;;;;;;;20.90;99.90;;;;;;4961577;28;19937;-84
2022/06/05 14:14:00;;;;;;;;;;;20.90;99.90;;;;;;5022502;28;19932;-82
2022/06/05 14:16:28;;;;;;;;;;;21.00;99.90;;;;;;4970213;28;19966;-83
2022/06/05 14:18:59;;;;;;;;;;;20.90;99.90;;;;;;5047826;28;19937;-81
2022/06/05 14:21:31;;;;;;;;;;;20.90;99.90;;;;;;4992756;28;20297;-83
2022/06/05 14:23:57;;;;;;;;;;;20.90;99.90;;;;;;4993303;28;19951;-82
2022/06/05 14:26:43;;;;;;;;;;;20.80;99.90;;;;;;4989364;28;21712;-81
2022/06/05 14:29:14;;;;;;;;;;;20.80;99.90;;;;;;4994090;28;19926;-82
2022/06/05 14:31:40;;;;;;;;;;;20.70;99.90;;;;;;4986092;28;19925;-83
2022/06/05 14:34:06;;;;;;;;;;;20.70;99.90;;;;;;5012285;28;19954;-83
2022/06/05 14:36:39;;;;;;;;;;;20.60;99.90;;;;;;4982782;28;20377;-81
2022/06/05 14:39:16;;;;;;;;;;;20.60;99.90;;;;;;5010777;28;19942;-87
2022/06/05 14:41:48;;;;;;;;;;;20.60;99.90;;;;;;5011599;28;19926;-84
2022/06/05 14:44:15;;;;;;;;;;;20.60;99.90;;;;;;5023259;28;19930;-84
2022/06/05 14:46:41;;;;;;;;;;;20.60;99.90;;;;;;5038867;28;19937;-84
2022/06/05 14:49:20;;;;;;;;;;;20.50;99.90;;;;;;5008997;28;19934;-84
2022/06/05 14:52:06;;;;;;;;;;;20.50;99.90;;;;;;5005235;28;19926;-89
2022/06/05 15:00:16;;;;;;;;;;;20.50;99.90;;;;;;4982674;28;19945;-81
2022/06/05 15:02:49;;;;;;;;;;;20.50;99.90;;;;;;4992659;28;19930;-79
2022/06/05 15:05:18;;;;;;;;;;;20.50;99.90;;;;;;5014047;28;19988;-77
2022/06/05 15:07:48;;;;;;;;;;;20.40;99.90;;;;;;5023171;28;20419;-79
2022/06/05 15:10:22;;;;;;;;;;;20.40;99.90;;;;;;5009350;28;19928;-80
2022/06/05 15:12:50;;;;;;;;;;;20.30;99.90;;;;;;5024169;28;19977;-88
2022/06/05 15:15:16;;;;;;;;;;;20.20;99.90;;;;;;4987168;28;19929;-79
2022/06/05 15:17:42;;;;;;;;;;;20.10;99.90;;;;;;5027427;28;19930;-80
2022/06/05 15:20:15;;;;;;;;;;;20.00;99.90;;;;;;4962080;28;20024;-82
2022/06/05 15:22:45;;;;;;;;;;;19.90;99.90;;;;;;4994864;28;19938;-83